createdAt,value
2022-12-11T00:03:28.359Z,-7.41
2022-12-11T00:08:30.847Z,-7.35
2022-12-11T00:13:34.653Z,-7.43
2022-12-11T00:18:37.480Z,-7.48
2022-12-11T00:23:40.051Z,-7.51
2022-12-11T00:28:45.250Z,-7.40
2022-12-11T00:33:49.573Z,-7.36
2022-12-11T00:38:53.017Z,-7.27
2022-12-11T00:43:57.849Z,-7.22
2022-12-11T00:49:00.341Z,-7.23
2022-12-11T00:54:02.891Z,-7.24
2022-12-11T00:59:06.706Z,-7.17
2022-12-11T01:04:09.181Z,-7.16
2022-12-11T01:09:29.136Z,-7.11
2022-12-11T01:14:32.966Z,-7.05
2022-12-11T01:19:35.437Z,-6.94
2022-12-11T01:24:38.020Z,-6.93
2022-12-11T01:29:41.806Z,-6.93
2022-12-11T01:34:44.270Z,-6.82
2022-12-11T01:39:46.752Z,-6.78
2022-12-11T01:45:27.285Z,-6.82
2022-12-11T01:50:34.081Z,-6.83
2022-12-11T01:55:39.400Z,-6.82
2022-12-11T02:00:41.932Z,-6.87
2022-12-11T02:05:46.023Z,-6.86
2022-12-11T02:11:04.135Z,-6.86
2022-12-11T02:16:18.364Z,-6.78
2022-12-11T02:21:27.011Z,-6.69
2022-12-11T02:26:54.918Z,-6.71
2022-12-11T02:32:02.447Z,-6.72
2022-12-11T02:37:10.535Z,-6.55
2022-12-11T02:42:16.154Z,-6.36
2022-12-11T02:47:22.122Z,-6.27
2022-12-11T02:52:26.482Z,-6.21
2022-12-11T02:57:34.375Z,-6.16
2022-12-11T03:02:39.742Z,-6.00
2022-12-11T03:07:44.762Z,-5.84
2022-12-11T03:12:53.566Z,-5.72
2022-12-11T03:18:04.684Z,-5.72
2022-12-11T03:23:16.594Z,-5.58
2022-12-11T03:28:22.943Z,-5.49
2022-12-11T03:33:32.102Z,-5.37
2022-12-11T03:38:39.932Z,-5.22
2022-12-11T03:43:42.813Z,-5.14
2022-12-11T03:48:49.666Z,-4.98
2022-12-11T03:53:54.057Z,-4.89
2022-12-11T03:58:56.546Z,-4.80
2022-12-11T04:04:00.464Z,-4.72
2022-12-11T04:09:02.985Z,-4.64
2022-12-11T04:14:24.470Z,-4.57
2022-12-11T04:19:46.071Z,-4.54
2022-12-11T04:24:48.901Z,-4.47
2022-12-11T04:29:51.369Z,-4.44
2022-12-11T04:34:55.218Z,-4.38
2022-12-11T04:39:57.679Z,-4.34
2022-12-11T04:45:00.136Z,-4.27
2022-12-11T04:50:04.790Z,-4.20
2022-12-11T04:55:09.128Z,-4.08
2022-12-11T05:00:12.916Z,-3.97
2022-12-11T05:05:16.737Z,-3.92
2022-12-11T05:10:19.265Z,-3.88
2022-12-11T05:15:21.761Z,-3.84
2022-12-11T05:20:25.620Z,-3.80
2022-12-11T05:25:28.218Z,-3.74
2022-12-11T05:30:30.669Z,-3.66
2022-12-11T05:35:34.692Z,-3.63
2022-12-11T05:40:37.220Z,-3.57
2022-12-11T05:45:39.690Z,-3.57
2022-12-11T05:50:43.482Z,-3.56
2022-12-11T05:55:45.954Z,-3.52
2022-12-11T06:00:48.973Z,-3.47
2022-12-11T06:05:52.781Z,-3.45
2022-12-11T06:10:55.259Z,-3.41
2022-12-11T06:16:02.518Z,-3.35
2022-12-11T06:21:14.522Z,-3.31
2022-12-11T06:26:18.297Z,-3.27
2022-12-11T06:31:21.796Z,-3.24
2022-12-11T06:36:26.078Z,-3.28
2022-12-11T06:41:28.556Z,-3.30
2022-12-11T06:46:31.186Z,-3.26
2022-12-11T06:51:34.994Z,-3.23
2022-12-11T06:56:37.637Z,-3.19
2022-12-11T07:01:40.749Z,-3.17
2022-12-11T07:06:44.575Z,-3.14
2022-12-11T07:11:47.102Z,-3.14
2022-12-11T07:16:49.583Z,-3.12
2022-12-11T07:21:53.494Z,-3.11
2022-12-11T07:26:56.000Z,-3.08
2022-12-11T07:31:58.626Z,-3.11
2022-12-11T07:37:02.586Z,-3.06
2022-12-11T07:42:05.120Z,-3.03
2022-12-11T07:47:07.607Z,-3.00
2022-12-11T07:52:11.398Z,-2.96
2022-12-11T07:57:14.426Z,-2.92
2022-12-11T08:02:17.131Z,-2.92
2022-12-11T08:07:20.982Z,-2.85
2022-12-11T08:12:23.466Z,-2.79
2022-12-11T08:17:29.547Z,-2.73
2022-12-11T08:22:35.759Z,-2.70
2022-12-11T08:27:38.238Z,-2.65
2022-12-11T08:32:40.846Z,-2.60
2022-12-11T08:37:44.733Z,-2.53
2022-12-11T08:42:47.194Z,-2.49
2022-12-11T08:47:49.685Z,-2.45
2022-12-11T08:52:54.100Z,-2.40
2022-12-11T08:57:56.600Z,-2.35
2022-12-11T09:02:59.090Z,-2.33
2022-12-11T09:08:02.914Z,-2.30
2022-12-11T09:13:05.526Z,-2.23
2022-12-11T09:18:08.095Z,-2.18
2022-12-11T09:23:11.872Z,-2.10
2022-12-11T09:28:14.412Z,-2.07
2022-12-11T09:33:16.978Z,-1.98
2022-12-11T09:38:20.777Z,-1.90
2022-12-11T09:43:37.187Z,-1.84
2022-12-11T09:48:41.150Z,-1.78
2022-12-11T09:53:45.040Z,-1.72
2022-12-11T09:59:03.151Z,-1.71
2022-12-11T10:04:21.625Z,-1.68
2022-12-11T10:09:33.293Z,-1.57
2022-12-11T10:14:50.523Z,-1.47
2022-12-11T10:19:53.677Z,-1.39
2022-12-11T10:25:15.305Z,-1.30
2022-12-11T10:30:20.332Z,-1.22
2022-12-11T10:35:36.256Z,-1.13
2022-12-11T10:40:42.934Z,-1.04
2022-12-11T10:45:52.671Z,-0.98
2022-12-11T11:16:27.417Z,-0.42
2022-12-11T11:21:31.743Z,-0.46
2022-12-11T11:27:11.081Z,-0.54
2022-12-11T11:32:03.185Z,-0.62
2022-12-11T11:37:06.118Z,-0.59
2022-12-11T11:42:16.204Z,-0.43
2022-12-11T11:47:24.893Z,-0.31
2022-12-11T11:52:33.115Z,-0.14
2022-12-11T11:57:43.310Z,-0.01
2022-12-11T12:02:49.017Z,0.03
2022-12-11T12:08:04.748Z,0.18
2022-12-11T12:13:30.440Z,0.17
2022-12-11T12:18:48.904Z,0.26
2022-12-11T12:24:08.280Z,0.27
2022-12-11T12:29:22.036Z,0.38
2022-12-11T12:34:42.918Z,0.48
2022-12-11T12:39:57.803Z,0.51
2022-12-11T12:45:09.867Z,0.61
2022-12-11T12:50:17.360Z,0.73
2022-12-11T12:55:23.917Z,0.87
2022-12-11T13:00:28.932Z,0.93
2022-12-11T13:05:35.306Z,1.04
2022-12-11T13:10:40.877Z,1.16
2022-12-11T13:15:44.302Z,1.26
2022-12-11T13:20:51.725Z,1.38
2022-12-11T13:25:55.976Z,1.53
2022-12-11T13:31:05.642Z,1.59
2022-12-11T13:36:26.731Z,1.64
2022-12-11T13:41:30.949Z,1.63
2022-12-11T13:46:37.753Z,1.64
2022-12-11T13:51:53.562Z,1.65
2022-12-11T13:57:02.888Z,1.66
2022-12-11T14:02:12.811Z,1.70
2022-12-11T14:07:25.460Z,1.81
2022-12-11T14:12:29.883Z,1.73
2022-12-11T14:17:34.903Z,1.75
2022-12-11T14:22:39.297Z,1.84
2022-12-11T14:27:49.103Z,1.85
2022-12-11T14:32:55.103Z,1.87
2022-12-11T14:38:03.235Z,1.93
2022-12-11T14:43:11.545Z,1.99
2022-12-11T14:48:20.428Z,1.95
2022-12-11T14:53:27.003Z,1.94
2022-12-11T14:58:30.281Z,1.93
2022-12-11T15:03:34.988Z,2.00
2022-12-11T15:08:38.886Z,2.20
2022-12-11T15:13:53.681Z,2.27
2022-12-11T15:18:58.690Z,2.34
2022-12-11T15:24:04.757Z,2.39
2022-12-11T15:29:24.253Z,2.45
2022-12-11T15:34:27.177Z,2.49
2022-12-11T15:39:31.239Z,2.53
2022-12-11T15:44:33.710Z,2.51
2022-12-11T15:49:36.156Z,2.52
2022-12-11T15:54:39.950Z,2.50
2022-12-11T15:59:42.582Z,2.46
2022-12-11T16:04:45.098Z,2.51
2022-12-11T16:09:49.557Z,2.57
2022-12-11T16:14:52.370Z,2.61
2022-12-11T16:19:55.059Z,2.65
2022-12-11T16:24:58.851Z,2.63
2022-12-11T16:30:01.331Z,2.61
2022-12-11T16:35:03.988Z,2.60
2022-12-11T16:40:09.288Z,2.59
2022-12-11T16:45:14.940Z,2.57
2022-12-11T16:50:17.773Z,2.52
2022-12-11T16:55:22.167Z,2.39
2022-12-11T17:00:25.584Z,2.25
2022-12-11T17:05:28.062Z,2.03
2022-12-11T17:10:31.934Z,1.89
2022-12-11T17:15:34.554Z,1.79
2022-12-11T17:20:40.869Z,1.70
2022-12-11T17:25:46.180Z,1.55
2022-12-11T17:30:49.971Z,1.35
2022-12-11T17:35:52.581Z,1.22
2022-12-11T17:40:56.407Z,1.03
2022-12-11T17:45:59.054Z,0.83
2022-12-11T17:51:04.655Z,0.64
2022-12-11T17:56:09.590Z,0.56
2022-12-11T18:01:12.294Z,0.56
2022-12-11T18:06:17.155Z,0.59
2022-12-11T18:11:22.531Z,0.67
2022-12-11T18:16:27.317Z,0.80
2022-12-11T18:21:32.229Z,0.86
2022-12-11T18:26:37.347Z,0.94
2022-12-11T18:31:42.656Z,0.95
2022-12-11T18:36:45.542Z,0.89
2022-12-11T18:42:03.385Z,0.80
2022-12-11T18:47:11.804Z,0.65
2022-12-11T18:52:14.581Z,0.46
2022-12-11T18:57:18.380Z,0.32
2022-12-11T19:02:21.663Z,0.25
2022-12-11T19:07:24.165Z,0.23
2022-12-11T19:12:28.075Z,0.19
2022-12-11T19:17:30.539Z,0.23
2022-12-11T19:22:33.136Z,0.26
2022-12-11T19:27:36.977Z,0.27
2022-12-11T19:32:39.481Z,0.29
2022-12-11T19:37:41.949Z,0.31
2022-12-11T19:42:45.831Z,0.30
2022-12-11T19:47:48.325Z,0.26
2022-12-11T19:52:50.803Z,0.26
2022-12-11T19:57:54.604Z,0.24
2022-12-11T20:02:57.101Z,0.30
2022-12-11T20:08:27.298Z,0.35
2022-12-11T20:13:24.102Z,0.35
2022-12-11T20:18:26.654Z,0.34
2022-12-11T20:23:29.166Z,0.33
2022-12-11T20:28:32.978Z,0.31
2022-12-11T20:33:35.732Z,0.32
2022-12-11T20:38:38.722Z,0.31
2022-12-11T20:43:43.198Z,0.30
2022-12-11T20:48:46.436Z,0.27
2022-12-11T20:53:50.185Z,0.25
2022-12-11T20:58:53.990Z,0.20
2022-12-11T21:03:56.608Z,0.21
2022-12-11T21:09:00.390Z,0.18
2022-12-11T21:14:04.982Z,0.08
2022-12-11T21:19:10.219Z,0.02
2022-12-11T21:24:18.568Z,-0.05
2022-12-11T21:29:22.539Z,-0.10
2022-12-11T21:34:25.729Z,-0.12
2022-12-11T21:39:29.178Z,-0.17
2022-12-11T21:49:55.665Z,-0.17
2022-12-11T21:54:58.139Z,-0.23
2022-12-11T22:00:01.951Z,-0.30
2022-12-11T22:05:04.870Z,-0.30
2022-12-11T22:10:08.167Z,-0.35
2022-12-11T22:15:12.488Z,-0.40
2022-12-11T22:20:15.134Z,-0.43
2022-12-11T22:25:17.686Z,-0.44
2022-12-11T22:30:21.928Z,-0.47
2022-12-11T22:35:27.401Z,-0.52
2022-12-11T22:40:30.746Z,-0.59
2022-12-11T22:45:39.716Z,-0.65
2022-12-11T22:50:42.397Z,-0.69
2022-12-11T22:55:44.881Z,-0.75
2022-12-11T23:00:48.982Z,-0.78
2022-12-11T23:05:51.455Z,-0.80
2022-12-11T23:10:53.948Z,-0.82
2022-12-11T23:15:57.794Z,-0.84
2022-12-11T23:21:00.440Z,-0.88
2022-12-11T23:26:03.338Z,-0.93
2022-12-11T23:31:07.645Z,-0.97
2022-12-11T23:36:10.758Z,-1.04
2022-12-11T23:41:15.624Z,-1.11
2022-12-11T23:46:21.643Z,-1.13
2022-12-11T23:51:26.045Z,-1.27
2022-12-11T23:56:30.089Z,-1.32
